createdAt,value
2022-12-05T00:00:03.149Z,69.91
2022-12-05T00:02:34.728Z,70.42
2022-12-05T00:05:04.999Z,70.30
2022-12-05T00:07:34.919Z,70.15
2022-12-05T00:10:05.185Z,69.93
2022-12-05T00:12:34.867Z,69.75
2022-12-05T00:15:05.064Z,69.81
2022-12-05T00:17:34.966Z,69.77
2022-12-05T00:20:05.315Z,69.60
2022-12-05T00:22:35.227Z,69.62
2022-12-05T00:25:05.264Z,69.53
2022-12-05T00:27:35.128Z,69.85
2022-12-05T00:30:05.485Z,69.73
2022-12-05T00:32:35.383Z,69.67
2022-12-05T00:35:05.755Z,69.48
2022-12-05T00:37:35.614Z,69.86
2022-12-05T00:40:05.888Z,70.04
2022-12-05T00:42:35.764Z,70.09
2022-12-05T00:45:06.087Z,70.17
2022-12-05T00:47:37.537Z,70.65
2022-12-05T00:50:08.528Z,70.46
2022-12-05T00:52:38.421Z,70.83
2022-12-05T00:55:08.935Z,70.64
2022-12-05T00:57:38.917Z,70.65
2022-12-05T01:00:10.168Z,70.91
2022-12-05T01:02:40.200Z,71.02
2022-12-05T01:05:11.043Z,71.24
2022-12-05T01:07:41.013Z,71.53
2022-12-05T01:10:11.423Z,71.67
2022-12-05T01:12:41.426Z,71.37
2022-12-05T01:15:12.105Z,71.38
2022-12-05T01:17:42.274Z,71.47
2022-12-05T01:20:12.845Z,71.61
2022-12-05T01:22:43.010Z,71.60
2022-12-05T01:25:12.899Z,71.34
2022-12-05T01:27:42.811Z,71.10
2022-12-05T01:30:13.501Z,71.49
2022-12-05T01:32:43.506Z,71.51
2022-12-05T01:35:13.680Z,71.41
2022-12-05T01:37:43.614Z,71.80
2022-12-05T01:40:13.710Z,71.81
2022-12-05T01:42:43.663Z,71.64
2022-12-05T01:45:15.744Z,72.11
2022-12-05T01:47:45.843Z,72.19
2022-12-05T01:50:15.731Z,71.79
2022-12-05T01:52:45.651Z,71.64
2022-12-05T01:55:16.133Z,71.71
2022-12-05T01:57:45.984Z,71.85
2022-12-05T02:00:16.912Z,71.93
2022-12-05T02:02:50.315Z,71.87
2022-12-05T02:05:20.692Z,72.00
2022-12-05T02:07:50.726Z,72.30
2022-12-05T02:10:21.110Z,72.33
2022-12-05T02:12:51.018Z,72.65
2022-12-05T02:15:40.496Z,72.81
2022-12-05T02:18:15.301Z,73.18
2022-12-05T02:20:48.877Z,72.94
2022-12-05T02:23:29.739Z,72.86
2022-12-05T02:26:08.411Z,72.84
2022-12-05T02:28:45.988Z,72.92
2022-12-05T02:31:16.775Z,73.01
2022-12-05T02:33:47.662Z,73.06
2022-12-05T02:36:18.819Z,73.14
2022-12-05T02:38:50.449Z,73.05
2022-12-05T02:41:21.088Z,73.24
2022-12-05T02:43:53.002Z,73.43
2022-12-05T02:46:23.293Z,73.25
2022-12-05T02:48:53.702Z,73.20
2022-12-05T02:51:23.910Z,73.59
2022-12-05T02:53:53.857Z,73.76
2022-12-05T02:56:23.767Z,74.13
2022-12-05T02:58:54.492Z,73.91
2022-12-05T03:01:27.448Z,73.81
2022-12-05T03:03:57.436Z,73.85
2022-12-05T03:06:27.946Z,73.91
2022-12-05T03:08:59.431Z,73.88
2022-12-05T03:11:29.330Z,74.32
2022-12-05T03:13:59.693Z,74.33
2022-12-05T03:16:30.211Z,74.85
2022-12-05T03:19:00.352Z,75.08
2022-12-05T03:21:32.479Z,74.87
2022-12-05T03:24:03.096Z,75.91
2022-12-05T03:26:39.634Z,76.03
2022-12-05T03:29:14.894Z,76.88
2022-12-05T03:31:46.777Z,76.40
2022-12-05T03:34:17.594Z,76.50
2022-12-05T03:36:48.198Z,76.60
2022-12-05T03:39:19.702Z,76.32
2022-12-05T03:41:51.133Z,76.40
2022-12-05T03:44:22.623Z,77.46
2022-12-05T03:46:53.575Z,77.33
2022-12-05T03:49:26.057Z,77.26
2022-12-05T03:52:00.175Z,77.05
2022-12-05T03:54:31.210Z,76.97
2022-12-05T03:57:01.930Z,76.79
2022-12-05T03:59:32.252Z,77.16
2022-12-05T04:02:02.639Z,77.44
2022-12-05T04:04:33.475Z,77.64
2022-12-05T04:07:04.134Z,78.12
2022-12-05T04:09:34.781Z,78.53
2022-12-05T04:12:05.387Z,78.32
2022-12-05T04:14:36.596Z,79.18
2022-12-05T04:17:06.852Z,79.64
2022-12-05T04:19:51.651Z,79.12
2022-12-05T04:22:21.574Z,79.35
2022-12-05T04:25:09.195Z,79.30
2022-12-05T04:27:40.422Z,79.99
2022-12-05T04:30:11.337Z,79.89
2022-12-05T04:32:42.398Z,79.42
2022-12-05T04:35:13.223Z,79.83
2022-12-05T04:37:44.000Z,79.92
2022-12-05T04:40:15.528Z,79.78
2022-12-05T04:42:45.503Z,79.90
2022-12-05T04:45:15.882Z,79.78
2022-12-05T04:47:46.471Z,80.03
2022-12-05T04:50:16.310Z,80.22
2022-12-05T04:52:46.264Z,80.17
2022-12-05T04:55:16.776Z,80.28
2022-12-05T04:57:47.782Z,80.94
2022-12-05T05:00:18.361Z,80.51
2022-12-05T05:02:51.874Z,80.89
2022-12-05T05:05:22.132Z,81.06
2022-12-05T05:07:52.627Z,80.77
2022-12-05T05:10:23.331Z,80.97
2022-12-05T05:12:53.654Z,80.56
2022-12-05T05:15:23.430Z,80.63
2022-12-05T05:17:53.156Z,80.58
2022-12-05T05:20:27.011Z,80.45
2022-12-05T05:22:56.901Z,80.63
2022-12-05T05:25:27.388Z,80.45
2022-12-05T05:27:57.250Z,80.91
2022-12-05T05:30:27.047Z,81.00
2022-12-05T05:32:56.939Z,80.39
2022-12-05T05:35:26.896Z,80.39
2022-12-05T05:37:56.698Z,80.64
2022-12-05T05:40:26.709Z,80.71
2022-12-05T05:55:37.362Z,78.62
2022-12-05T05:58:09.278Z,77.91
2022-12-05T06:00:40.896Z,77.65
2022-12-05T06:03:12.495Z,77.41
2022-12-05T06:05:46.413Z,76.87
2022-12-05T06:08:22.091Z,76.79
2022-12-05T06:10:53.925Z,76.44
2022-12-05T06:13:25.557Z,76.67
2022-12-05T06:15:57.239Z,76.30
2022-12-05T06:18:29.059Z,76.60
2022-12-05T06:21:00.703Z,76.44
2022-12-05T06:23:32.202Z,75.61
2022-12-05T06:26:03.869Z,75.43
2022-12-05T06:28:35.615Z,75.03
2022-12-05T06:31:12.151Z,74.61
2022-12-05T06:33:44.976Z,74.44
2022-12-05T06:36:17.397Z,74.52
2022-12-05T06:38:49.481Z,74.22
2022-12-05T06:41:21.661Z,73.69
2022-12-05T06:44:01.478Z,73.20
2022-12-05T06:46:34.010Z,73.12
2022-12-05T06:49:05.553Z,72.53
2022-12-05T06:51:37.645Z,72.45
2022-12-05T06:54:09.985Z,72.50
2022-12-05T06:56:41.642Z,72.07
2022-12-05T06:59:13.308Z,71.88
2022-12-05T07:01:46.550Z,71.58
2022-12-05T07:04:20.544Z,71.28
2022-12-05T07:06:52.266Z,71.46
2022-12-05T07:09:44.579Z,71.04
2022-12-05T07:12:16.595Z,71.06
2022-12-05T07:14:49.645Z,71.06
2022-12-05T07:17:22.437Z,70.71
2022-12-05T07:19:54.325Z,70.50
2022-12-05T07:22:26.299Z,70.43
2022-12-05T07:24:58.121Z,70.22
2022-12-05T07:27:29.513Z,70.05
2022-12-05T07:30:01.603Z,69.65
2022-12-05T07:32:35.637Z,69.38
2022-12-05T07:35:08.703Z,69.25
2022-12-05T07:37:40.402Z,68.14
2022-12-05T07:40:14.504Z,68.35
2022-12-05T07:42:45.886Z,68.45
2022-12-05T07:45:15.851Z,68.39
2022-12-05T07:47:47.254Z,68.07
2022-12-05T07:50:17.126Z,67.03
2022-12-05T07:52:48.630Z,66.75
2022-12-05T07:55:20.290Z,66.55
2022-12-05T07:57:51.922Z,65.81
2022-12-05T08:00:24.944Z,65.28
2022-12-05T08:02:56.528Z,64.53
2022-12-05T08:05:28.178Z,63.25
2022-12-05T08:08:02.655Z,62.43
2022-12-05T08:10:35.414Z,61.46
2022-12-05T08:13:08.193Z,61.07
2022-12-05T08:15:39.716Z,60.99
2022-12-05T08:18:11.491Z,60.74
2022-12-05T08:20:42.873Z,60.57
2022-12-05T08:23:14.271Z,60.63
2022-12-05T08:25:44.555Z,60.49
2022-12-05T08:28:16.246Z,59.94
2022-12-05T08:30:47.895Z,60.41
2022-12-05T08:33:28.679Z,59.60
2022-12-05T08:36:01.182Z,59.72
2022-12-05T08:38:32.879Z,59.65
2022-12-05T08:41:04.956Z,59.31
2022-12-05T08:43:36.765Z,59.20
2022-12-05T08:46:08.973Z,59.16
2022-12-05T08:48:40.550Z,58.41
2022-12-05T08:51:17.742Z,58.44
2022-12-05T08:53:49.385Z,58.00
2022-12-05T08:56:26.509Z,57.64
2022-12-05T08:59:04.765Z,57.86
2022-12-05T09:01:39.577Z,58.10
2022-12-05T09:04:12.642Z,57.74
2022-12-05T09:06:44.448Z,57.83
2022-12-05T09:09:16.216Z,56.41
2022-12-05T09:11:50.974Z,56.11
2022-12-05T09:14:22.707Z,55.69
2022-12-05T09:16:54.614Z,55.83
2022-12-05T09:19:27.854Z,55.50
2022-12-05T09:21:59.459Z,55.61
2022-12-05T09:24:29.213Z,55.33
2022-12-05T09:27:00.886Z,55.21
2022-12-05T09:29:32.909Z,55.06
2022-12-05T09:32:04.614Z,55.22
2022-12-05T09:34:36.600Z,54.86
2022-12-05T09:37:30.755Z,54.20
2022-12-05T09:39:58.709Z,53.08
2022-12-05T09:42:36.059Z,53.25
2022-12-05T09:45:14.674Z,53.73
2022-12-05T09:47:53.014Z,53.80
2022-12-05T09:50:25.519Z,53.26
2022-12-05T09:53:15.164Z,52.98
2022-12-05T09:55:48.700Z,52.63
2022-12-05T09:58:29.947Z,52.43
2022-12-05T10:01:06.244Z,52.44
2022-12-05T10:03:42.825Z,52.00
2022-12-05T10:06:17.473Z,51.97
2022-12-05T10:09:02.648Z,51.87
2022-12-05T10:11:38.703Z,51.51
2022-12-05T10:14:13.853Z,51.52
2022-12-05T10:43:04.804Z,48.96
2022-12-05T10:45:36.565Z,48.59
2022-12-05T10:48:10.575Z,48.46
2022-12-05T10:50:42.578Z,48.08
2022-12-05T10:53:17.591Z,48.31
2022-12-05T10:56:28.037Z,48.32
2022-12-05T10:58:43.967Z,48.42
2022-12-05T11:01:17.207Z,48.40
2022-12-05T11:03:49.536Z,47.84
2022-12-05T11:06:19.960Z,47.45
2022-12-05T11:09:10.045Z,47.20
2022-12-05T11:11:41.872Z,47.25
2022-12-05T11:14:24.580Z,47.35
2022-12-05T11:16:57.201Z,46.97
2022-12-05T11:19:30.866Z,46.62
2022-12-05T11:22:02.322Z,46.21
2022-12-05T11:24:35.479Z,45.58
2022-12-05T11:27:22.784Z,45.67
2022-12-05T11:30:04.435Z,45.57
2022-12-05T11:32:37.942Z,45.74
2022-12-05T11:35:28.238Z,45.01
2022-12-05T11:38:01.686Z,44.73
2022-12-05T11:40:38.410Z,44.45
2022-12-05T11:43:19.506Z,44.74
2022-12-05T11:45:55.563Z,44.41
2022-12-05T11:48:34.879Z,44.02
2022-12-05T11:51:12.872Z,43.77
2022-12-05T11:54:12.704Z,43.28
2022-12-05T11:56:45.520Z,43.17
2022-12-05T11:59:27.297Z,43.18
2022-12-05T12:02:04.032Z,42.51
2022-12-05T12:04:56.859Z,42.41
2022-12-05T12:07:48.906Z,42.08
2022-12-05T12:10:22.962Z,42.10
2022-12-05T12:13:00.976Z,42.17
2022-12-05T12:15:43.549Z,41.98
2022-12-05T12:18:20.366Z,41.30
2022-12-05T12:20:58.345Z,41.16
2022-12-05T12:23:38.221Z,41.35
2022-12-05T12:26:12.912Z,41.43
2022-12-05T12:28:52.555Z,41.90
2022-12-05T12:31:40.539Z,42.21
2022-12-05T12:34:24.711Z,42.47
2022-12-05T12:36:57.250Z,42.31
2022-12-05T12:39:35.322Z,42.38
2022-12-05T12:42:21.926Z,42.36
2022-12-05T12:45:17.292Z,42.37
2022-12-05T12:47:55.634Z,41.95
2022-12-05T12:50:27.964Z,42.07
2022-12-05T12:53:11.357Z,42.09
2022-12-05T12:55:45.087Z,42.06
2022-12-05T13:18:54.313Z,42.68
2022-12-05T13:21:25.960Z,42.85
2022-12-05T13:23:56.481Z,43.57
2022-12-05T13:26:28.259Z,43.91
2022-12-05T13:28:58.440Z,44.19
2022-12-05T13:31:41.058Z,44.10
2022-12-05T13:34:52.357Z,44.09
2022-12-05T13:37:42.984Z,44.83
2022-12-05T13:40:46.722Z,45.20
2022-12-05T13:43:19.998Z,45.79
2022-12-05T13:46:04.180Z,45.88
2022-12-05T13:48:37.918Z,46.92
2022-12-05T14:02:57.380Z,46.80
2022-12-05T14:05:50.322Z,46.95
2022-12-05T14:24:26.754Z,47.98
2022-12-05T14:27:07.421Z,48.15
2022-12-05T14:29:43.807Z,48.47
2022-12-05T14:32:23.950Z,48.46
2022-12-05T14:35:06.164Z,49.00
2022-12-05T14:37:38.915Z,49.38
2022-12-05T14:40:21.718Z,49.16
2022-12-05T14:42:57.713Z,48.76
2022-12-05T14:45:39.721Z,48.63
2022-12-05T14:48:29.203Z,48.74
2022-12-05T14:51:00.798Z,48.58
2022-12-05T14:53:43.225Z,48.51
2022-12-05T14:56:24.586Z,49.36
2022-12-05T14:58:57.772Z,49.22
2022-12-05T15:01:30.008Z,49.49
2022-12-05T15:04:10.655Z,49.46
2022-12-05T15:06:48.458Z,49.26
2022-12-05T15:09:38.263Z,48.88
2022-12-05T15:12:15.303Z,48.73
2022-12-05T15:14:54.389Z,48.10
2022-12-05T15:17:29.044Z,47.85
2022-12-05T15:20:06.329Z,47.70
2022-12-05T15:22:38.716Z,47.65
2022-12-05T15:25:27.661Z,47.42
2022-12-05T15:28:03.852Z,47.74
2022-12-05T15:30:45.198Z,47.85
2022-12-05T15:33:16.942Z,47.54
2022-12-05T15:35:48.738Z,47.27
2022-12-05T15:38:26.984Z,46.77
2022-12-05T15:40:59.325Z,46.58
2022-12-05T15:43:32.467Z,46.56
2022-12-05T15:46:25.261Z,46.57
2022-12-05T15:48:57.069Z,46.49
2022-12-05T15:51:32.312Z,46.35
2022-12-05T15:54:06.237Z,46.35
2022-12-05T15:56:39.348Z,46.29
2022-12-05T15:59:14.120Z,45.89
2022-12-05T16:01:46.929Z,45.86
2022-12-05T16:04:24.875Z,45.73
2022-12-05T16:07:00.699Z,45.75
2022-12-05T16:09:34.417Z,45.68
2022-12-05T16:12:08.492Z,45.41
2022-12-05T16:17:41.768Z,45.52
2022-12-05T16:20:28.094Z,45.32
2022-12-05T16:23:00.672Z,45.28
2022-12-05T16:25:33.992Z,45.24
2022-12-05T16:28:17.452Z,44.96
2022-12-05T16:30:59.737Z,44.91
2022-12-05T16:33:32.157Z,44.66
2022-12-05T16:36:11.822Z,44.84
2022-12-05T16:38:43.534Z,44.95
2022-12-05T16:41:15.051Z,44.86
2022-12-05T16:43:47.715Z,44.79
2022-12-05T16:46:48.221Z,44.75
2022-12-05T16:49:23.031Z,44.70
2022-12-05T16:52:00.308Z,44.86
2022-12-05T16:54:31.960Z,44.95
2022-12-05T16:57:01.715Z,45.01
2022-12-05T16:59:35.128Z,44.92
2022-12-05T17:02:12.161Z,44.90
2022-12-05T17:04:43.904Z,45.08
2022-12-05T17:07:13.917Z,45.08
2022-12-05T17:09:45.451Z,44.93
2022-12-05T17:12:16.982Z,45.24
2022-12-05T17:14:48.702Z,45.33
2022-12-05T17:17:21.384Z,45.38
2022-12-05T17:19:52.899Z,45.32
2022-12-05T17:22:26.433Z,45.41
2022-12-05T17:25:00.348Z,45.34
2022-12-05T17:27:32.453Z,45.42
2022-12-05T17:30:04.253Z,45.40
2022-12-05T17:32:35.887Z,45.69
2022-12-05T17:35:15.200Z,45.68
2022-12-05T17:37:46.486Z,45.84
2022-12-05T17:40:18.419Z,45.98
2022-12-05T17:42:50.257Z,45.98
2022-12-05T17:45:22.544Z,45.95
2022-12-05T17:47:54.477Z,46.13
2022-12-05T17:50:26.713Z,46.09
2022-12-05T17:53:05.714Z,46.13
2022-12-05T17:55:39.364Z,46.11
2022-12-05T17:58:11.232Z,46.15
2022-12-05T18:00:42.806Z,46.45
2022-12-05T18:03:15.051Z,46.56
2022-12-05T18:05:47.251Z,46.36
2022-12-05T18:08:18.798Z,46.33
2022-12-05T18:10:50.996Z,46.53
2022-12-05T18:13:22.468Z,46.54
2022-12-05T18:15:59.407Z,46.90
2022-12-05T18:18:31.652Z,46.96
2022-12-05T18:21:10.809Z,46.91
2022-12-05T18:23:42.594Z,46.94
2022-12-05T18:26:14.303Z,47.07
2022-12-05T18:28:47.333Z,47.17
2022-12-05T18:31:19.099Z,47.12
2022-12-05T18:33:50.571Z,47.43
2022-12-05T18:36:23.050Z,47.29
2022-12-05T18:38:55.223Z,47.22
2022-12-05T18:41:27.423Z,47.21
2022-12-05T18:43:59.213Z,47.32
2022-12-05T18:46:31.235Z,47.35
2022-12-05T18:49:03.712Z,47.35
2022-12-05T18:51:35.524Z,47.45
2022-12-05T18:54:07.082Z,47.40
2022-12-05T18:56:40.311Z,47.45
2022-12-05T18:59:14.969Z,47.55
2022-12-05T19:01:46.636Z,47.66
2022-12-05T19:04:18.925Z,47.69
2022-12-05T19:06:55.118Z,47.86
2022-12-05T19:09:27.113Z,47.80
2022-12-05T19:11:59.760Z,47.91
2022-12-05T19:14:33.438Z,48.09
2022-12-05T19:17:06.750Z,48.08
2022-12-05T19:19:38.163Z,48.29
2022-12-05T19:22:08.630Z,48.38
2022-12-05T19:24:40.097Z,48.40
2022-12-05T19:27:10.147Z,48.78
2022-12-05T19:29:41.537Z,48.99
2022-12-05T19:32:15.153Z,48.91
2022-12-05T19:34:48.659Z,48.83
2022-12-05T19:37:20.258Z,49.10
2022-12-05T19:39:52.099Z,49.67
2022-12-05T19:42:23.750Z,50.13
2022-12-05T19:44:55.364Z,50.64
2022-12-05T19:47:27.151Z,50.90
2022-12-05T19:49:59.511Z,51.28
2022-12-05T19:52:31.502Z,51.37
2022-12-05T19:55:03.230Z,51.42
2022-12-05T19:57:34.921Z,51.17
2022-12-05T20:00:07.949Z,51.05
2022-12-05T20:02:45.936Z,51.22
2022-12-05T20:05:17.668Z,51.33
2022-12-05T20:07:47.525Z,50.88
2022-12-05T20:10:19.686Z,50.57
2022-12-05T20:12:51.349Z,50.53
2022-12-05T20:15:21.584Z,50.30
2022-12-05T20:17:53.541Z,50.35
2022-12-05T20:20:25.701Z,50.22
2022-12-05T20:22:57.847Z,50.68
2022-12-05T20:25:29.303Z,50.89
2022-12-05T20:28:01.051Z,50.83
2022-12-05T20:30:32.521Z,51.05
2022-12-05T20:33:02.364Z,51.57
2022-12-05T20:35:34.128Z,52.01
2022-12-05T20:38:05.471Z,51.84
2022-12-05T20:40:37.203Z,51.92
2022-12-05T20:43:09.022Z,52.47
2022-12-05T20:45:40.659Z,52.92
2022-12-05T20:48:12.372Z,53.28
2022-12-05T20:50:44.133Z,53.45
2022-12-05T20:53:15.835Z,53.79
2022-12-05T20:55:47.777Z,54.00
2022-12-05T20:58:20.077Z,54.08
2022-12-05T21:00:52.025Z,54.24
2022-12-05T21:03:23.797Z,54.38
2022-12-05T21:05:55.511Z,54.47
2022-12-05T21:08:27.663Z,54.27
2022-12-05T21:10:59.678Z,54.36
2022-12-05T21:13:31.404Z,54.44
2022-12-05T21:16:04.507Z,54.57
2022-12-05T21:18:36.425Z,54.70
2022-12-05T21:21:09.158Z,54.59
2022-12-05T21:23:40.722Z,54.19
2022-12-05T21:26:14.581Z,53.98
2022-12-05T21:28:46.720Z,53.84
2022-12-05T21:31:20.369Z,53.74
2022-12-05T21:33:53.604Z,53.72
2022-12-05T21:36:25.348Z,54.10
2022-12-05T21:38:56.904Z,54.06
2022-12-05T21:41:28.474Z,53.96
2022-12-05T21:44:00.072Z,54.05
2022-12-05T21:46:31.912Z,54.18
2022-12-05T21:49:04.214Z,54.56
2022-12-05T21:51:36.066Z,55.47
2022-12-05T21:54:08.028Z,56.19
2022-12-05T21:56:40.280Z,56.80
2022-12-05T21:59:12.074Z,57.24
2022-12-05T22:01:43.739Z,57.45
2022-12-05T22:04:15.310Z,57.83
2022-12-05T22:06:46.871Z,57.93
2022-12-05T22:09:18.717Z,58.17
2022-12-05T22:11:50.436Z,58.13
2022-12-05T22:14:21.964Z,58.27
2022-12-05T22:16:53.669Z,58.39
2022-12-05T22:19:25.299Z,58.30
2022-12-05T22:21:57.129Z,58.40
2022-12-05T22:24:28.768Z,58.43
2022-12-05T22:27:00.486Z,58.40
2022-12-05T22:29:31.918Z,58.52
2022-12-05T22:32:03.491Z,58.42
2022-12-05T22:34:35.088Z,58.44
2022-12-05T22:37:06.849Z,58.56
2022-12-05T22:39:38.590Z,58.67
2022-12-05T22:42:10.391Z,59.12
2022-12-05T22:44:42.047Z,59.31
2022-12-05T22:47:13.760Z,59.65
2022-12-05T22:49:45.422Z,59.63
2022-12-05T22:52:17.063Z,59.84
2022-12-05T22:54:48.772Z,59.76
2022-12-05T22:57:20.399Z,60.26
2022-12-05T22:59:51.844Z,61.07
2022-12-05T23:02:23.596Z,60.67
2022-12-05T23:04:54.975Z,60.67
2022-12-05T23:07:24.752Z,61.24
2022-12-05T23:09:56.625Z,61.43
2022-12-05T23:12:28.273Z,61.42
2022-12-05T23:14:59.670Z,61.46
2022-12-05T23:17:31.300Z,61.94
2022-12-05T23:20:02.781Z,62.08
2022-12-05T23:22:35.103Z,62.31
2022-12-05T23:25:06.978Z,62.75
2022-12-05T23:27:38.300Z,62.80
2022-12-05T23:30:09.782Z,63.24
2022-12-05T23:32:39.548Z,63.85
2022-12-05T23:35:12.024Z,63.76
2022-12-05T23:37:44.512Z,64.71
2022-12-05T23:40:16.049Z,64.87
2022-12-05T23:42:47.552Z,64.88
2022-12-05T23:45:19.017Z,64.68
2022-12-05T23:47:50.589Z,65.20
2022-12-05T23:50:22.483Z,65.32
2022-12-05T23:52:54.096Z,65.46
2022-12-05T23:55:25.493Z,65.66
2022-12-05T23:57:55.231Z,65.46
